Time;durP1;ratioP1;P1;durP2;ratioP2;P2;SDS_P1;SDS_P2;PMS_P1;PMS_P2;Temp;Humidity;BMP_temperature;BMP_pressure;BME280_temperature;BME280_humidity;BME280_pressure;Samples;Min_cycle;Max_cycle;Signal;HPM_P1;HPM_P2
2021/05/06 00:01:37;;;;;;;1.83;1.60;;;6.10;99.90;;;;;;5047697;28;20439;-73
2021/05/06 00:04:30;;;;;;;2.00;1.23;;;6.00;99.90;;;;;;5047864;28;20944;-73
2021/05/06 00:34:14;;;;;;;2.70;1.80;;;6.30;99.90;;;;;;5049221;28;20781;-73
2021/05/06 00:36:39;;;;;;;3.70;1.33;;;6.30;99.90;;;;;;5050704;28;20426;-72
2021/05/06 00:39:12;;;;;;;1.27;1.10;;;6.30;99.90;;;;;;5048852;28;20650;-72
2021/05/06 00:41:50;;;;;;;1.73;0.90;;;6.30;99.90;;;;;;5051201;28;20283;-72
2021/05/06 01:04:54;;;;;;;0.90;0.90;;;6.30;99.90;;;;;;5050266;28;20458;-72
2021/05/06 01:12:18;;;;;;;1.47;1.37;;;6.30;99.90;;;;;;5050619;28;20975;-73
2021/05/06 01:14:44;;;;;;;1.37;1.00;;;6.20;99.90;;;;;;5050373;28;20419;-72
2021/05/06 01:17:09;;;;;;;2.53;1.60;;;6.20;99.90;;;;;;5050345;28;20976;-72
2021/05/06 01:19:35;;;;;;;1.50;1.40;;;6.30;99.90;;;;;;5050408;28;20555;-73
2021/05/06 01:22:01;;;;;;;1.40;1.27;;;6.30;99.90;;;;;;5050564;28;20196;-72
2021/05/06 01:24:26;;;;;;;1.10;1.10;;;6.30;99.90;;;;;;5050374;28;20201;-71
2021/05/06 01:29:38;;;;;;;7.10;1.20;;;6.40;99.90;;;;;;5050327;28;20659;-72
2021/05/06 01:32:21;;;;;;;1.43;1.33;;;6.30;99.90;;;;;;5047091;28;20443;-72
2021/05/06 01:34:53;;;;;;;2.70;1.20;;;6.40;99.90;;;;;;5050202;28;20434;-72
2021/05/06 01:38:14;;;;;;;2.80;1.20;;;6.40;99.90;;;;;;5050321;28;20847;-72
2021/05/06 01:40:36;;;;;;;1.37;1.27;;;6.30;99.90;;;;;;5028594;28;20435;-72
2021/05/06 01:43:32;;;;;;;1.93;1.60;;;6.40;99.90;;;;;;5046626;28;20424;-72
2021/05/06 02:01:36;;;;;;;4.03;1.77;;;6.60;99.90;;;;;;5050178;28;21161;-72
2021/05/06 02:04:02;;;;;;;3.40;1.40;;;6.60;99.90;;;;;;5049934;28;20185;-72
2021/05/06 02:06:28;;;;;;;2.37;1.73;;;6.60;99.90;;;;;;5045781;28;20181;-72
2021/05/06 02:08:53;;;;;;;2.33;1.67;;;6.60;99.90;;;;;;5049798;28;20178;-72
2021/05/06 02:11:19;;;;;;;5.87;1.50;;;6.60;99.90;;;;;;5049944;28;20290;-72
2021/05/06 02:13:46;;;;;;;2.20;1.50;;;6.60;99.90;;;;;;5049859;28;20178;-72
2021/05/06 02:16:18;;;;;;;2.67;1.77;;;6.70;99.90;;;;;;5049756;28;20207;-72
2021/05/06 02:18:44;;;;;;;2.73;1.70;;;6.70;99.90;;;;;;5053246;28;20919;-72
2021/05/06 02:21:15;;;;;;;2.40;1.13;;;6.60;99.90;;;;;;5035550;28;20549;-73
2021/05/06 02:23:40;;;;;;;2.80;1.70;;;6.70;99.90;;;;;;5053597;28;20429;-72
2021/05/06 02:26:06;;;;;;;2.53;1.40;;;6.70;99.90;;;;;;5050622;28;20466;-73
2021/05/06 02:28:31;;;;;;;3.47;1.87;;;6.60;99.90;;;;;;5051120;28;20187;-72
2021/05/06 02:30:57;;;;;;;5.30;1.60;;;6.60;99.90;;;;;;5051759;28;20204;-72
2021/05/06 02:33:22;;;;;;;1.80;1.70;;;6.60;99.90;;;;;;5051541;28;20198;-73
2021/05/06 02:35:48;;;;;;;3.03;1.80;;;6.60;99.90;;;;;;5052872;28;20214;-72
2021/05/06 02:38:13;;;;;;;1.80;1.70;;;6.60;99.90;;;;;;5032567;28;20904;-72
2021/05/06 02:40:39;;;;;;;1.63;1.50;;;6.50;99.90;;;;;;5052975;28;20199;-72
2021/05/06 02:43:04;;;;;;;2.60;1.37;;;6.50;99.90;;;;;;5050714;28;20191;-72
2021/05/06 02:45:30;;;;;;;2.43;1.90;;;6.50;99.90;;;;;;5051657;28;20682;-72
2021/05/06 02:47:55;;;;;;;1.67;1.20;;;6.50;99.90;;;;;;5050793;28;20665;-72
2021/05/06 02:50:23;;;;;;;5.00;1.93;;;6.50;99.90;;;;;;5051741;28;20261;-72
2021/05/06 02:53:09;;;;;;;3.50;1.70;;;6.50;99.90;;;;;;5050578;28;20172;-72
2021/05/06 03:03:25;;;;;;;5.47;1.93;;;6.50;99.90;;;;;;5048628;28;20443;-72
2021/05/06 03:05:55;;;;;;;3.47;1.63;;;6.60;99.90;;;;;;5051984;28;20467;-73
2021/05/06 03:10:55;;;;;;;2.93;1.90;;;6.70;99.90;;;;;;5049519;28;20549;-73
2021/05/06 03:13:52;;;;;;;5.67;1.63;;;6.70;99.90;;;;;;5052623;28;20180;-72
2021/05/06 03:24:17;;;;;;;2.83;1.63;;;6.80;99.90;;;;;;5052353;28;20421;-73
2021/05/06 03:26:43;;;;;;;3.90;2.10;;;6.70;99.90;;;;;;5049912;28;20542;-72
2021/05/06 03:29:13;;;;;;;3.50;1.50;;;6.60;99.90;;;;;;5034256;28;20420;-72
2021/05/06 03:32:02;;;;;;;2.40;1.27;;;6.60;99.90;;;;;;5047506;28;20463;-73
2021/05/06 04:12:32;;;;;;;2.57;1.77;;;5.80;99.90;;;;;;5047936;28;20435;-72
2021/05/06 04:17:57;;;;;;;2.80;1.77;;;5.80;99.90;;;;;;5045839;28;20432;-72
2021/05/06 04:25:45;;;;;;;;;;;6.00;99.90;;;;;;5049549;28;20497;-71
2021/05/06 04:28:46;;;;;;;;;;;6.00;99.90;;;;;;5048769;28;20042;-73
2021/05/06 04:39:02;;;;;;;;;;;6.00;99.90;;;;;;5045924;28;19951;-72
2021/05/06 04:41:46;;;;;;;;;;;6.10;99.90;;;;;;5050541;28;19952;-72
2021/05/06 04:55:23;;;;;;;;;;;6.40;99.90;;;;;;5046478;28;20359;-71
2021/05/06 05:03:31;;;;;;;;;;;6.70;99.90;;;;;;5048333;28;20525;-72
2021/05/06 05:05:56;;;;;;;;;;;6.70;99.90;;;;;;5049065;28;20002;-71
2021/05/06 05:08:22;;;;;;;;;;;6.80;99.90;;;;;;5048641;28;20413;-73
2021/05/06 05:11:03;;;;;;;;;;;6.90;99.90;;;;;;5050928;28;20000;-72
2021/05/06 05:19:15;;;;;;;;;;;7.10;99.90;;;;;;5023109;28;19947;-72
2021/05/06 05:27:02;;;;;;;;;;;7.90;99.90;;;;;;5045894;28;20428;-72
2021/05/06 05:29:27;;;;;;;;;;;7.50;99.90;;;;;;5048854;28;19946;-72
2021/05/06 05:31:53;;;;;;;;;;;7.40;99.90;;;;;;5031290;28;19961;-72
2021/05/06 05:36:44;;;;;;;;;;;7.20;99.90;;;;;;5050623;28;20053;-72
2021/05/06 05:39:24;;;;;;;;;;;7.10;99.90;;;;;;5048054;28;19950;-71
2021/05/06 05:42:14;;;;;;;;;;;7.20;99.90;;;;;;5050850;28;20411;-72
2021/05/06 05:54:51;;;;;;;;;;;7.30;99.90;;;;;;5052763;28;19971;-72
2021/05/06 05:57:17;;;;;;;;;;;7.30;99.90;;;;;;5054518;28;19908;-72
2021/05/06 05:59:43;;;;;;;;;;;7.30;99.90;;;;;;5051736;28;19916;-72
2021/05/06 06:02:08;;;;;;;;;;;7.30;99.90;;;;;;5051134;28;19916;-72
2021/05/06 06:04:34;;;;;;;;;;;7.30;99.90;;;;;;5052131;28;19919;-72
2021/05/06 06:06:59;;;;;;;;;;;7.30;99.90;;;;;;5051625;28;20323;-72
2021/05/06 06:09:25;;;;;;;;;;;7.30;99.90;;;;;;5036666;28;19913;-72
2021/05/06 06:11:50;;;;;;;;;;;7.20;99.90;;;;;;5051502;28;20528;-72
2021/05/06 06:14:22;;;;;;;;;;;7.30;99.90;;;;;;5054280;28;19915;-72
2021/05/06 06:16:47;;;;;;;;;;;7.30;99.90;;;;;;5052108;28;19928;-73
2021/05/06 06:19:15;;;;;;;;;;;7.40;99.90;;;;;;5054123;28;20329;-71
2021/05/06 06:21:45;;;;;;;;;;;7.30;99.90;;;;;;5052732;28;19908;-71
2021/05/06 06:24:11;;;;;;;;;;;7.40;99.90;;;;;;5050271;28;19920;-72
2021/05/06 06:26:37;;;;;;;;;;;7.40;99.90;;;;;;5052927;28;19970;-72
2021/05/06 06:29:15;;;;;;;;;;;7.40;99.90;;;;;;5051518;28;19909;-72
2021/05/06 06:31:44;;;;;;;;;;;7.40;99.90;;;;;;5048265;28;19947;-72
2021/05/06 06:34:10;;;;;;;;;;;7.50;99.90;;;;;;5052457;28;20469;-71
2021/05/06 06:36:36;;;;;;;;;;;7.40;99.90;;;;;;5053483;28;19954;-72
2021/05/06 06:39:05;;;;;;;;;;;7.50;99.90;;;;;;5052164;28;20296;-73
2021/05/06 06:41:31;;;;;;;;;;;7.50;99.90;;;;;;5049819;28;19917;-72
2021/05/06 06:43:59;;;;;;;;;;;7.50;99.90;;;;;;5053043;28;19961;-72
2021/05/06 06:46:25;;;;;;;;;;;7.60;99.90;;;;;;5047171;28;19928;-72
2021/05/06 06:48:50;;;;;;;;;;;7.60;99.90;;;;;;5051832;28;19916;-72
2021/05/06 06:51:16;;;;;;;;;;;7.60;99.90;;;;;;5052329;28;19908;-71
2021/05/06 06:53:42;;;;;;;;;;;7.60;99.90;;;;;;5053379;28;20217;-73
2021/05/06 06:56:07;;;;;;;;;;;7.60;99.90;;;;;;5048888;28;19916;-71
2021/05/06 06:58:33;;;;;;;;;;;7.60;99.90;;;;;;5053361;28;20228;-71
2021/05/06 07:00:58;;;;;;;;;;;7.60;99.90;;;;;;5049633;28;19908;-71
2021/05/06 07:03:24;;;;;;;;;;;7.60;99.90;;;;;;5050230;28;19919;-72
2021/05/06 07:05:49;;;;;;;;;;;7.60;99.90;;;;;;5050982;28;19913;-71
2021/05/06 07:08:18;;;;;;;;;;;7.60;99.90;;;;;;5050333;28;20286;-72
2021/05/06 07:10:44;;;;;;;;;;;7.60;99.90;;;;;;5050989;28;20007;-72
2021/05/06 07:13:10;;;;;;;;;;;7.60;99.90;;;;;;5050671;28;19999;-72
2021/05/06 07:15:35;;;;;;;;;;;7.70;99.90;;;;;;5050083;28;20003;-72
2021/05/06 07:18:01;;;;;;;;;;;7.80;99.90;;;;;;5049827;28;19916;-74
2021/05/06 07:20:27;;;;;;;;;;;7.90;99.90;;;;;;5052808;28;19908;-71
2021/05/06 07:22:53;;;;;;;;;;;8.10;99.90;;;;;;5051291;28;19905;-70
2021/05/06 07:25:18;;;;;;;;;;;8.20;99.90;;;;;;5052166;28;19908;-72
2021/05/06 07:27:44;;;;;;;;;;;8.30;99.90;;;;;;5051024;28;19939;-72
2021/05/06 07:30:09;;;;;;;;;;;8.30;99.90;;;;;;5050258;28;19913;-71
2021/05/06 07:32:36;;;;;;;;;;;8.30;99.90;;;;;;5049646;28;20303;-71
2021/05/06 07:35:02;;;;;;;;;;;8.30;99.90;;;;;;5052259;28;19980;-71
2021/05/06 07:37:27;;;;;;;;;;;8.30;99.90;;;;;;5045998;28;19952;-72
2021/05/06 07:39:53;;;;;;;;;;;8.40;99.90;;;;;;5051728;28;20049;-72
2021/05/06 07:42:18;;;;;;;;;;;8.50;99.90;;;;;;5052821;28;19931;-71
2021/05/06 07:44:43;;;;;;;;;;;8.60;99.90;;;;;;5052727;28;19920;-71
2021/05/06 07:47:10;;;;;;;;;;;8.70;99.90;;;;;;5052609;28;19909;-71
2021/05/06 07:49:36;;;;;;;;;;;8.80;99.90;;;;;;5052562;28;20384;-71
2021/05/06 07:52:01;;;;;;;;;;;9.00;99.90;;;;;;5034704;28;19939;-71
2021/05/06 07:54:27;;;;;;;;;;;9.00;99.90;;;;;;5052504;28;20348;-71
2021/05/06 07:56:53;;;;;;;;;;;9.10;99.90;;;;;;5052365;28;19904;-71
2021/05/06 07:59:18;;;;;;;;;;;9.10;99.90;;;;;;5052481;28;19904;-71
2021/05/06 08:01:43;;;;;;;;;;;9.20;99.90;;;;;;5051498;28;19904;-71
2021/05/06 08:04:09;;;;;;;;;;;9.30;99.90;;;;;;5052401;28;20271;-71
2021/05/06 08:06:34;;;;;;;;;;;9.30;99.90;;;;;;5052113;28;20256;-71
2021/05/06 08:09:00;;;;;;;;;;;9.30;99.90;;;;;;5052154;28;20272;-71
2021/05/06 08:11:25;;;;;;;;;;;9.40;99.90;;;;;;5052217;28;19974;-71
2021/05/06 08:13:51;;;;;;;;;;;9.40;99.90;;;;;;5051984;28;19909;-71
2021/05/06 08:16:16;;;;;;;;;;;9.50;99.90;;;;;;5051401;28;19912;-71
2021/05/06 08:18:42;;;;;;;;;;;9.40;99.90;;;;;;5051932;28;19992;-71
2021/05/06 08:21:07;;;;;;;;;;;9.40;99.90;;;;;;5052012;28;20284;-72
2021/05/06 08:23:33;;;;;;;;;;;9.40;99.90;;;;;;5034072;28;19905;-71
2021/05/06 08:25:59;;;;;;;;;;;9.40;99.90;;;;;;5047413;28;19908;-71
2021/05/06 08:28:24;;;;;;;;;;;9.40;99.90;;;;;;5052002;28;19915;-71
2021/05/06 08:30:49;;;;;;;;;;;9.40;99.90;;;;;;5051579;28;19940;-71
2021/05/06 08:33:15;;;;;;;;;;;9.40;99.90;;;;;;5051691;28;19916;-71
2021/05/06 08:35:40;;;;;;;;;;;9.40;99.90;;;;;;5051211;28;19916;-71
2021/05/06 08:38:06;;;;;;;;;;;9.40;99.90;;;;;;5051585;28;20444;-71
2021/05/06 08:40:31;;;;;;;;;;;9.40;99.90;;;;;;5052257;28;20007;-71
2021/05/06 08:42:57;;;;;;;;;;;9.40;99.90;;;;;;5051574;28;20004;-71
2021/05/06 08:45:27;;;;;;;;;;;9.50;99.90;;;;;;5051119;28;19916;-71
2021/05/06 08:47:53;;;;;;;;;;;9.50;99.90;;;;;;5051341;28;20355;-72
2021/05/06 08:50:19;;;;;;;;;;;9.40;99.90;;;;;;5051630;28;19936;-73
2021/05/06 08:52:47;;;;;;;;;;;9.40;99.90;;;;;;5051617;28;19909;-71
2021/05/06 08:55:13;;;;;;;;;;;9.50;99.90;;;;;;5051487;28;20363;-72
2021/05/06 08:57:38;;;;;;;;;;;9.40;99.90;;;;;;5051358;28;19962;-71
2021/05/06 09:00:04;;;;;;;;;;;9.60;99.90;;;;;;5051500;28;19909;-72
2021/05/06 09:02:30;;;;;;;;;;;9.60;99.90;;;;;;5051408;28;19918;-72
2021/05/06 09:04:55;;;;;;;;;;;9.60;99.90;;;;;;5051142;28;19917;-71
2021/05/06 09:07:21;;;;;;;;;;;9.60;99.90;;;;;;5050093;28;19909;-71
2021/05/06 09:09:48;;;;;;;;;;;9.50;99.90;;;;;;5050880;28;19922;-72
2021/05/06 09:12:13;;;;;;;;;;;9.50;99.90;;;;;;5051086;28;20004;-71
2021/05/06 09:14:46;;;;;;;;;;;9.50;99.90;;;;;;5051189;28;20007;-72
2021/05/06 09:17:25;;;;;;;;;;;9.50;99.90;;;;;;5051058;28;19955;-72
2021/05/06 09:20:06;;;;;;;;;;;9.50;99.90;;;;;;5050630;28;20011;-72
2021/05/06 09:22:36;;;;;;;;;;;9.50;99.90;;;;;;5047884;28;19916;-72
2021/05/06 09:25:20;;;;;;;;;;;9.50;99.90;;;;;;5047167;28;19920;-72
2021/05/06 09:27:46;;;;;;;;;;;9.60;99.90;;;;;;5054682;28;19909;-71
2021/05/06 09:30:12;;;;;;;;;;;9.60;99.90;;;;;;5055020;28;20376;-72
2021/05/06 09:32:37;;;;;;;;;;;9.60;99.90;;;;;;5054617;28;20408;-72
2021/05/06 09:35:03;;;;;;;;;;;9.60;99.90;;;;;;5054465;28;20339;-72
2021/05/06 09:37:34;;;;;;;;;;;9.60;99.90;;;;;;5054802;28;20292;-72
2021/05/06 09:40:02;;;;;;;;;;;9.70;99.90;;;;;;5050354;28;19916;-72
2021/05/06 09:42:38;;;;;;;;;;;9.80;99.90;;;;;;5054975;28;19908;-73
2021/05/06 09:45:04;;;;;;;;;;;9.70;99.90;;;;;;5051432;28;19970;-73
2021/05/06 09:47:29;;;;;;;;;;;9.90;99.90;;;;;;5053458;28;19909;-73
2021/05/06 09:49:54;;;;;;;;;;;10.00;99.90;;;;;;5054404;28;20399;-71
2021/05/06 09:52:20;;;;;;;;;;;10.00;99.90;;;;;;5054386;28;20380;-73
2021/05/06 09:54:47;;;;;;;;;;;10.00;99.90;;;;;;5054438;28;19908;-72
2021/05/06 09:57:13;;;;;;;;;;;10.10;99.90;;;;;;5054371;28;19999;-73
2021/05/06 09:59:39;;;;;;;;;;;10.10;99.90;;;;;;5054236;28;20042;-72
2021/05/06 10:02:08;;;;;;;;;;;10.10;99.90;;;;;;5054248;28;20307;-73
2021/05/06 10:04:34;;;;;;;;;;;10.20;99.90;;;;;;5054146;28;20339;-73
2021/05/06 10:07:07;;;;;;;;;;;10.20;99.90;;;;;;5054034;28;19916;-73
2021/05/06 10:09:32;;;;;;;;;;;10.20;99.90;;;;;;5050742;28;20024;-73
2021/05/06 10:11:58;;;;;;;;;;;10.20;99.90;;;;;;5054156;28;20005;-73
2021/05/06 10:14:24;;;;;;;;;;;10.30;99.90;;;;;;5054197;28;20279;-73
2021/05/06 10:16:49;;;;;;;;;;;10.30;99.90;;;;;;5053653;28;20007;-72
2021/05/06 10:19:16;;;;;;;;;;;10.40;99.90;;;;;;5053757;28;19916;-72
2021/05/06 10:21:43;;;;;;;;;;;10.40;99.90;;;;;;5052764;28;20291;-73
2021/05/06 10:24:08;;;;;;;;;;;10.40;99.90;;;;;;5035966;28;20494;-73
2021/05/06 10:26:35;;;;;;;;;;;10.40;99.90;;;;;;5053679;28;19917;-72
2021/05/06 10:29:00;;;;;;;;;;;10.40;99.90;;;;;;5053816;28;19915;-73
2021/05/06 10:31:26;;;;;;;;;;;10.40;99.90;;;;;;5049647;28;19909;-73
2021/05/06 10:33:52;;;;;;;;;;;10.40;99.90;;;;;;5035121;28;19908;-72
2021/05/06 10:36:17;;;;;;;;;;;10.30;99.90;;;;;;5053824;28;20273;-72
2021/05/06 10:38:44;;;;;;;;;;;10.20;99.90;;;;;;5034921;28;20003;-72
2021/05/06 10:41:21;;;;;;;;;;;10.10;99.90;;;;;;5053288;28;20373;-72
2021/05/06 10:43:56;;;;;;;;;;;10.20;99.90;;;;;;5053449;28;20473;-72
2021/05/06 10:46:22;;;;;;;;;;;10.10;99.90;;;;;;5053420;28;19917;-73
2021/05/06 10:49:00;;;;;;;;;;;10.10;99.90;;;;;;5053440;28;19918;-72
2021/05/06 10:51:27;;;;;;;;;;;10.10;99.90;;;;;;5053687;28;19912;-72
2021/05/06 10:53:52;;;;;;;;;;;10.00;99.90;;;;;;5052491;28;20393;-72
2021/05/06 10:56:17;;;;;;;;;;;10.10;99.90;;;;;;5053159;28;19909;-72
2021/05/06 10:58:43;;;;;;;;;;;10.10;99.90;;;;;;5035639;28;20003;-72
2021/05/06 11:01:12;;;;;;;;;;;10.20;99.90;;;;;;5052803;28;20356;-73
2021/05/06 11:03:37;;;;;;;;;;;10.10;99.90;;;;;;5052414;28;20372;-72
2021/05/06 11:06:03;;;;;;;;;;;10.20;99.90;;;;;;5052771;28;19923;-73
2021/05/06 11:08:29;;;;;;;;;;;10.30;99.90;;;;;;5053342;28;19908;-73
2021/05/06 11:10:58;;;;;;;;;;;10.30;99.90;;;;;;5034942;28;19909;-72
2021/05/06 11:13:27;;;;;;;;;;;10.30;99.90;;;;;;5053183;28;19909;-73
2021/05/06 11:16:11;;;;;;;;;;;10.30;99.90;;;;;;5052390;28;19909;-72
2021/05/06 11:18:44;;;;;;;;;;;10.30;99.90;;;;;;5050332;28;20490;-73
2021/05/06 11:21:30;;;;;;;;;;;10.30;99.90;;;;;;5052402;28;19909;-72
2021/05/06 11:24:11;;;;;;;;;;;10.30;99.90;;;;;;5045066;28;20292;-72
2021/05/06 11:26:55;;;;;;;;;;;10.20;99.90;;;;;;5049451;28;20396;-73
2021/05/06 11:29:28;;;;;;;;;;;10.20;99.90;;;;;;5052707;28;20441;-73
2021/05/06 11:31:53;;;;;;;;;;;10.20;99.90;;;;;;5052478;28;19909;-73
2021/05/06 11:34:27;;;;;;;;;;;10.10;99.90;;;;;;5052646;28;19916;-73
2021/05/06 11:37:05;;;;;;;;;;;10.20;99.90;;;;;;5052260;28;20417;-72
2021/05/06 11:39:30;;;;;;;;;;;10.20;99.90;;;;;;5044764;28;19912;-73
2021/05/06 11:41:56;;;;;;;;;;;10.20;99.90;;;;;;5048289;28;19916;-73
2021/05/06 11:44:21;;;;;;;;;;;10.20;99.90;;;;;;5051323;28;19987;-72
2021/05/06 11:46:47;;;;;;;;;;;10.20;99.90;;;;;;5034198;28;19917;-73
2021/05/06 11:49:14;;;;;;;;;;;10.20;99.90;;;;;;5052069;28;19924;-73
2021/05/06 11:51:43;;;;;;;;;;;10.30;99.90;;;;;;5052177;28;19908;-73
2021/05/06 11:54:10;;;;;;;;;;;10.30;99.90;;;;;;5052260;28;20042;-73
2021/05/06 11:56:39;;;;;;;;;;;10.50;99.90;;;;;;5051965;28;19934;-73
2021/05/06 11:59:06;;;;;;;;;;;10.50;99.90;;;;;;5051936;28;19936;-73
2021/05/06 12:01:31;;;;;;;;;;;10.40;99.90;;;;;;5052074;28;20273;-73
2021/05/06 12:03:57;;;;;;;;;;;10.30;99.90;;;;;;5052003;28;19908;-72
2021/05/06 12:06:27;;;;;;;;;;;10.40;99.90;;;;;;5051732;28;20339;-73
2021/05/06 12:08:52;;;;;;;;;;;10.30;99.90;;;;;;5051926;28;19909;-72
2021/05/06 12:11:18;;;;;;;;;;;10.40;99.90;;;;;;5051953;28;20007;-72
2021/05/06 12:13:43;;;;;;;;;;;10.40;99.90;;;;;;5051061;28;20407;-73
2021/05/06 12:16:15;;;;;;;;;;;10.50;99.90;;;;;;5051480;28;19982;-72
2021/05/06 12:18:41;;;;;;;;;;;10.40;99.90;;;;;;5034912;28;19944;-73
2021/05/06 12:21:07;;;;;;;;;;;10.30;99.90;;;;;;5051833;28;19913;-72
2021/05/06 12:23:34;;;;;;;;;;;10.30;99.90;;;;;;5051821;28;19909;-73
2021/05/06 12:25:59;;;;;;;;;;;10.40;99.90;;;;;;5051510;28;20394;-72
2021/05/06 12:28:25;;;;;;;;;;;10.40;99.90;;;;;;5050998;28;19966;-72
2021/05/06 12:30:57;;;;;;;;;;;10.30;99.90;;;;;;5051453;28;20261;-72
2021/05/06 12:33:30;;;;;;;;;;;10.30;99.90;;;;;;5052056;28;19995;-72
2021/05/06 12:35:55;;;;;;;;;;;10.30;99.90;;;;;;5051557;28;20398;-71
2021/05/06 12:38:21;;;;;;;;;;;10.20;99.90;;;;;;5051688;28;20003;-72
2021/05/06 12:40:46;;;;;;;;;;;10.30;99.90;;;;;;5051331;28;20505;-71
2021/05/06 12:43:29;;;;;;;;;;;10.10;99.90;;;;;;5051751;28;20383;-71
2021/05/06 12:46:05;;;;;;;;;;;10.00;99.90;;;;;;5051197;28;19974;-70
2021/05/06 12:48:34;;;;;;;;;;;10.00;99.90;;;;;;5051725;28;19932;-71
2021/05/06 12:51:03;;;;;;;;;;;10.00;99.90;;;;;;5030006;28;19909;-72
2021/05/06 12:53:29;;;;;;;;;;;10.10;99.90;;;;;;5047810;28;19948;-72
2021/05/06 12:55:54;;;;;;;;;;;10.00;99.90;;;;;;5050954;28;19963;-72
2021/05/06 12:58:25;;;;;;;;;;;9.90;99.90;;;;;;5051257;28;19912;-73
2021/05/06 13:00:54;;;;;;;;;;;9.80;99.90;;;;;;5050902;28;19912;-70
2021/05/06 13:03:26;;;;;;;;;;;9.80;99.90;;;;;;5051338;28;19909;-71
2021/05/06 13:05:52;;;;;;;;;;;9.80;99.90;;;;;;5050851;28;20328;-71
2021/05/06 13:08:17;;;;;;;;;;;9.80;99.90;;;;;;5051105;28;19915;-71
2021/05/06 13:10:44;;;;;;;;;;;9.80;99.90;;;;;;5050186;28;20296;-71
2021/05/06 13:13:11;;;;;;;;;;;9.80;99.90;;;;;;5051028;28;19920;-72
2021/05/06 13:15:45;;;;;;;;;;;9.90;99.90;;;;;;5049662;28;19912;-71
2021/05/06 13:18:13;;;;;;;;;;;9.80;99.90;;;;;;5033404;28;19908;-71
2021/05/06 13:20:38;;;;;;;;;;;9.80;99.90;;;;;;5051037;28;20276;-71
2021/05/06 13:23:04;;;;;;;;;;;9.70;99.90;;;;;;5050964;28;19915;-72
2021/05/06 13:25:48;;;;;;;;;;;9.60;99.90;;;;;;5050738;28;19912;-70
2021/05/06 13:28:15;;;;;;;;;;;9.50;99.90;;;;;;5049271;28;19909;-71
2021/05/06 13:30:41;;;;;;;;;;;9.50;99.90;;;;;;5051018;28;19951;-71
2021/05/06 13:33:10;;;;;;;;;;;9.40;99.90;;;;;;5051055;28;20395;-71
2021/05/06 13:35:35;;;;;;;;;;;9.40;99.90;;;;;;5050670;28;19908;-71
2021/05/06 13:38:01;;;;;;;;;;;9.30;99.90;;;;;;5049493;28;20387;-71
2021/05/06 13:40:26;;;;;;;;;;;9.30;99.90;;;;;;5050901;28;19917;-72
2021/05/06 13:42:52;;;;;;;;;;;9.30;99.90;;;;;;5050716;28;19909;-72
2021/05/06 13:45:18;;;;;;;;;;;9.20;99.90;;;;;;5033925;28;20299;-71
2021/05/06 13:47:47;;;;;;;;;;;9.20;99.90;;;;;;5050879;28;19913;-71
2021/05/06 13:50:14;;;;;;;;;;;9.10;99.90;;;;;;5050731;28;19909;-72
2021/05/06 13:52:39;;;;;;;;;;;9.20;99.90;;;;;;5032966;28;20418;-71
2021/05/06 13:55:05;;;;;;;;;;;9.30;99.90;;;;;;5050470;28;19913;-71
2021/05/06 13:57:32;;;;;;;;;;;9.30;99.90;;;;;;5050430;28;19962;-72
2021/05/06 13:59:58;;;;;;;;;;;9.30;99.90;;;;;;5046538;28;20017;-72
2021/05/06 14:02:23;;;;;;;;;;;9.30;99.90;;;;;;5050789;28;20456;-71
2021/05/06 14:04:49;;;;;;;;;;;9.30;99.90;;;;;;5050479;28;20304;-71
2021/05/06 14:07:15;;;;;;;;;;;9.30;99.90;;;;;;5050649;28;19912;-71
2021/05/06 14:09:40;;;;;;;;;;;9.40;99.90;;;;;;5050671;28;19915;-73
2021/05/06 14:12:06;;;;;;;;;;;9.40;99.90;;;;;;5050524;28;19971;-72
2021/05/06 14:14:31;;;;;;;;;;;9.30;99.90;;;;;;5052803;28;19909;-72
2021/05/06 14:16:57;;;;;;;;;;;9.30;99.90;;;;;;5053199;28;19955;-71
2021/05/06 14:19:23;;;;;;;;;;;9.30;99.90;;;;;;5035509;28;19959;-73
2021/05/06 14:21:51;;;;;;;;;;;9.30;99.90;;;;;;5053209;28;20333;-71
2021/05/06 14:24:16;;;;;;;;;;;9.20;99.90;;;;;;5053543;28;19909;-72
2021/05/06 14:26:45;;;;;;;;;;;9.30;99.90;;;;;;5052895;28;19912;-72
2021/05/06 14:29:12;;;;;;;;;;;9.20;99.90;;;;;;5053019;28;20371;-71
2021/05/06 14:31:37;;;;;;;;;;;9.20;99.90;;;;;;5053485;28;19956;-70
2021/05/06 14:34:03;;;;;;;;;;;9.20;99.90;;;;;;5053001;28;19944;-71
2021/05/06 14:36:28;;;;;;;;;;;9.10;99.90;;;;;;5052971;28;19909;-71
2021/05/06 14:38:56;;;;;;;;;;;9.00;99.90;;;;;;5053180;28;20011;-71
2021/05/06 14:41:22;;;;;;;;;;;9.00;99.90;;;;;;5053310;28;19921;-71
2021/05/06 14:43:47;;;;;;;;;;;9.00;99.90;;;;;;5053835;28;19936;-71
2021/05/06 14:46:13;;;;;;;;;;;9.00;99.90;;;;;;5053671;28;19913;-71
2021/05/06 14:48:38;;;;;;;;;;;9.00;99.90;;;;;;5054030;28;19912;-71
2021/05/06 14:51:04;;;;;;;;;;;9.10;99.90;;;;;;5053894;28;19913;-71
2021/05/06 14:53:30;;;;;;;;;;;9.00;99.90;;;;;;5054010;28;20364;-72
2021/05/06 14:55:56;;;;;;;;;;;9.10;99.90;;;;;;5053251;28;20004;-71
2021/05/06 14:58:23;;;;;;;;;;;9.10;99.90;;;;;;5054020;28;19917;-72
2021/05/06 15:00:49;;;;;;;;;;;9.00;99.90;;;;;;5053442;28;19909;-72
2021/05/06 15:03:14;;;;;;;;;;;9.00;99.90;;;;;;5053927;28;20284;-71
2021/05/06 15:05:40;;;;;;;;;;;8.90;99.90;;;;;;5053325;28;19913;-71
2021/05/06 15:08:05;;;;;;;;;;;8.90;99.90;;;;;;5053729;28;20391;-71
2021/05/06 15:10:31;;;;;;;;;;;8.90;99.90;;;;;;5035963;28;19909;-71
2021/05/06 15:12:57;;;;;;;;;;;8.90;99.90;;;;;;5047334;28;19932;-71
2021/05/06 15:15:23;;;;;;;;;;;8.90;99.90;;;;;;5052791;28;20372;-72
2021/05/06 15:17:51;;;;;;;;;;;8.90;99.90;;;;;;5053180;28;19978;-72
2021/05/06 15:20:17;;;;;;;;;;;8.90;99.90;;;;;;5053468;28;19909;-71
2021/05/06 15:22:43;;;;;;;;;;;8.90;99.90;;;;;;5053494;28;19909;-72
2021/05/06 15:25:11;;;;;;;;;;;8.80;99.90;;;;;;5052882;28;19958;-71
2021/05/06 15:27:42;;;;;;;;;;;8.80;99.90;;;;;;5053246;28;19971;-71
2021/05/06 15:30:08;;;;;;;;;;;8.70;99.90;;;;;;5053219;28;20259;-71
2021/05/06 15:32:33;;;;;;;;;;;8.70;99.90;;;;;;5053082;28;20280;-71
2021/05/06 15:35:00;;;;;;;;;;;8.70;99.90;;;;;;5052928;28;19919;-71
2021/05/06 15:37:26;;;;;;;;;;;8.70;99.90;;;;;;5052962;28;19931;-71
2021/05/06 15:39:52;;;;;;;;;;;8.70;99.90;;;;;;5052731;28;19917;-71
2021/05/06 15:42:17;;;;;;;;;;;8.70;99.90;;;;;;5052429;28;19944;-71
2021/05/06 15:44:42;;;;;;;;;;;8.70;99.90;;;;;;5050561;28;19913;-71
2021/05/06 15:47:08;;;;;;;;;;;8.70;99.90;;;;;;5052408;28;19908;-71
2021/05/06 15:49:35;;;;;;;;;;;8.80;99.90;;;;;;5034819;28;19916;-71
2021/05/06 15:52:01;;;;;;;;;;;8.80;99.90;;;;;;5052324;28;19909;-72
2021/05/06 15:54:27;;;;;;;;;;;8.80;99.90;;;;;;5052332;28;20003;-71
2021/05/06 15:56:52;;;;;;;;;;;8.90;99.90;;;;;;5052119;28;19985;-71
2021/05/06 15:59:18;;;;;;;;;;;8.80;99.90;;;;;;5052332;28;19912;-70
2021/05/06 16:01:45;;;;;;;;;;;9.00;99.90;;;;;;5050865;28;20384;-71
2021/05/06 16:04:12;;;;;;;;;;;9.00;99.90;;;;;;5052072;28;20004;-71
2021/05/06 16:06:37;;;;;;;;;;;9.00;99.90;;;;;;5052380;28;19913;-72
2021/05/06 16:09:04;;;;;;;;;;;9.00;99.90;;;;;;5054579;28;20381;-71
2021/05/06 16:11:30;;;;;;;;;;;9.00;99.90;;;;;;5052991;28;20370;-72
2021/05/06 16:13:55;;;;;;;;;;;9.00;99.90;;;;;;5052502;28;19909;-71
2021/05/06 16:16:21;;;;;;;;;;;9.10;99.90;;;;;;5052493;28;19915;-71
2021/05/06 16:18:47;;;;;;;;;;;9.10;99.90;;;;;;5052710;28;20315;-71
2021/05/06 16:21:13;;;;;;;;;;;9.10;99.90;;;;;;5052374;28;20003;-71
2021/05/06 16:23:39;;;;;;;;;;;9.20;99.90;;;;;;5052383;28;19940;-71
2021/05/06 16:26:05;;;;;;;;;;;9.30;99.90;;;;;;5051985;28;19917;-71
2021/05/06 16:28:31;;;;;;;;;;;9.30;99.90;;;;;;5052645;28;19908;-71
2021/05/06 16:30:57;;;;;;;;;;;9.30;99.90;;;;;;5052647;28;19908;-71
2021/05/06 16:33:22;;;;;;;;;;;9.30;99.90;;;;;;5052123;28;20299;-71
2021/05/06 16:36:09;;;;;;;;;;;9.30;99.90;;;;;;5050929;28;20007;-71
2021/05/06 16:38:43;;;;;;;;;;;9.40;99.90;;;;;;5030792;28;19913;-71
2021/05/06 16:41:11;;;;;;;;;;;9.40;99.90;;;;;;5051371;28;19920;-71
2021/05/06 16:46:21;;;;;;;;;;;9.40;99.90;;;;;;5051441;28;19924;-71
2021/05/06 16:48:46;;;;;;;;;;;9.40;99.90;;;;;;5051668;28;19908;-71
2021/05/06 16:51:12;;;;;;;;;;;9.30;99.90;;;;;;5051440;28;19991;-70
2021/05/06 16:53:37;;;;;;;;;;;9.30;99.90;;;;;;5052324;28;19935;-71
2021/05/06 16:56:02;;;;;;;;;;;9.30;99.90;;;;;;5051233;28;20050;-74
2021/05/06 16:58:28;;;;;;;;;;;9.30;99.90;;;;;;5043654;28;19921;-71
2021/05/06 17:00:54;;;;;;;;;;;9.20;99.90;;;;;;5051677;28;20570;-71
2021/05/06 17:03:19;;;;;;;;;;;9.20;99.90;;;;;;5051922;28;19970;-71
2021/05/06 17:05:45;;;;;;;;;;;9.20;99.90;;;;;;5051278;28;20015;-71
2021/05/06 17:08:10;;;;;;;;;;;9.20;99.90;;;;;;5051266;28;19916;-71
2021/05/06 17:10:36;;;;;;;;;;;9.10;99.90;;;;;;5050676;28;19909;-71
2021/05/06 17:13:07;;;;;;;;;;;9.10;99.90;;;;;;5052018;28;19940;-71
2021/05/06 17:15:33;;;;;;;;;;;9.10;99.90;;;;;;5051724;28;20583;-71
2021/05/06 17:17:58;;;;;;;;;;;9.00;99.90;;;;;;5051670;28;19912;-71
2021/05/06 17:20:24;;;;;;;;;;;9.00;99.90;;;;;;5051666;28;19919;-70
2021/05/06 17:22:49;;;;;;;;;;;9.00;99.90;;;;;;5051605;28;19913;-72